Time;durP1;ratioP1;P1;durP2;ratioP2;P2;SDS_P1;SDS_P2;PMS_P1;PMS_P2;Temp;Humidity;BMP_temperature;BMP_pressure;BME280_temperature;BME280_humidity;BME280_pressure;Samples;Min_cycle;Max_cycle;Signal;HPM_P1;HPM_P2
2023/07/23 00:02:05;;;;;;;5.18;4.68;;;;;;;17.78;60.57;98392.56;5044120;28;20029;-80
2023/07/23 00:04:30;;;;;;;6.18;4.70;;;;;;;17.78;60.84;98384.47;5032624;28;20064;-80
2023/07/23 00:06:56;;;;;;;6.68;4.03;;;;;;;17.90;60.55;98373.94;5031498;28;20069;-80
2023/07/23 00:09:23;;;;;;;7.90;5.03;;;;;;;18.06;60.24;98407.56;5047193;28;20034;-80
2023/07/23 00:11:48;;;;;;;6.35;4.93;;;;;;;18.02;60.47;98405.78;5046358;28;20052;-80
2023/07/23 00:14:13;;;;;;;6.43;4.90;;;;;;;17.52;63.16;98364.56;5035984;28;20025;-81
2023/07/23 00:16:39;;;;;;;9.45;5.25;;;;;;;17.96;61.20;98397.00;5035684;28;20107;-81
2023/07/23 00:19:05;;;;;;;6.70;4.70;;;;;;;17.52;63.33;98349.19;5031799;28;20461;-81
2023/07/23 00:21:31;;;;;;;6.25;4.45;;;;;;;17.61;61.62;98351.94;5036079;28;20257;-80
2023/07/23 00:23:57;;;;;;;6.97;4.85;;;;;;;17.62;61.65;98353.56;5049273;28;20044;-80
2023/07/23 00:26:24;;;;;;;8.07;5.25;;;;;;;17.40;63.36;98346.19;5019116;28;20022;-81
2023/07/23 00:28:49;;;;;;;6.40;4.57;;;;;;;17.87;61.68;98385.31;5038764;28;20018;-81
2023/07/23 00:31:15;;;;;;;11.43;5.45;;;;;;;17.59;61.77;98344.16;5049521;28;20048;-80
2023/07/23 00:33:40;;;;;;;7.43;4.85;;;;;;;17.48;62.54;98348.16;5046161;28;20484;-81
2023/07/23 00:36:06;;;;;;;6.75;5.10;;;;;;;17.84;62.17;98394.84;5049422;28;20039;-80
2023/07/23 00:38:31;;;;;;;9.55;5.32;;;;;;;17.61;63.09;98349.25;5052286;28;20093;-80
2023/07/23 00:40:56;;;;;;;6.35;4.75;;;;;;;17.56;62.15;98339.38;5043510;28;20049;-80
2023/07/23 00:43:23;;;;;;;9.55;5.03;;;;;;;17.89;62.13;98400.13;5044722;28;20034;-80
2023/07/23 00:45:48;;;;;;;6.78;4.85;;;;;;;17.82;61.95;98401.66;5039223;28;20052;-80
2023/07/23 00:48:14;;;;;;;6.28;5.03;;;;;;;16.98;65.03;98343.88;5047960;28;20025;-80
2023/07/23 00:50:39;;;;;;;7.85;5.43;;;;;;;16.85;66.83;98347.41;5049043;28;20030;-80
2023/07/23 00:53:05;;;;;;;12.30;5.20;;;;;;;17.07;65.95;98407.59;5046506;28;20063;-80
2023/07/23 00:55:31;;;;;;;11.52;5.07;;;;;;;16.81;65.04;98336.44;5050421;28;20086;-80
2023/07/23 00:57:57;;;;;;;8.23;5.00;;;;;;;17.22;63.70;98352.53;5042387;28;20092;-80
2023/07/23 01:00:22;;;;;;;9.55;4.88;;;;;;;17.38;62.55;98356.50;5046973;28;20067;-80
2023/07/23 01:02:47;;;;;;;6.95;4.75;;;;;;;17.52;62.63;98345.66;5048759;28;20084;-81
2023/07/23 01:05:13;;;;;;;5.88;4.60;;;;;;;17.84;62.85;98386.72;5043699;28;20044;-81
2023/07/23 01:07:39;;;;;;;5.82;4.43;;;;;;;17.67;62.80;98353.44;5046984;28;20568;-80
2023/07/23 01:10:06;;;;;;;6.15;4.43;;;;;;;17.67;62.87;98359.63;5046897;28;20057;-80
2023/07/23 01:12:32;;;;;;;6.63;4.75;;;;;;;17.80;62.98;98372.25;5016307;28;20128;-80
2023/07/23 01:14:57;;;;;;;5.72;4.90;;;;;;;17.55;63.23;98380.97;5031897;28;20041;-80
2023/07/23 01:17:23;;;;;;;12.27;5.00;;;;;;;17.55;63.34;98363.97;5045255;28;20401;-80
2023/07/23 01:20:06;;;;;;;9.23;4.43;;;;;;;17.77;63.23;98370.19;5047230;28;20036;-80
2023/07/23 01:22:36;;;;;;;5.50;4.68;;;;;;;17.65;62.69;98361.81;5033124;28;20041;-80
2023/07/23 01:25:02;;;;;;;6.40;5.20;;;;;;;17.61;63.10;98358.16;5033912;28;20033;-81
2023/07/23 01:27:27;;;;;;;5.57;4.43;;;;;;;17.29;64.22;98323.25;5054712;28;20024;-80
2023/07/23 01:29:53;;;;;;;6.15;3.88;;;;;;;17.89;63.40;98366.91;5017919;28;20033;-80
2023/07/23 01:32:18;;;;;;;8.88;4.75;;;;;;;17.72;63.22;98327.13;5051594;28;20087;-80
2023/07/23 01:34:44;;;;;;;6.90;4.75;;;;;;;17.89;63.36;98367.72;5056885;28;20025;-81
2023/07/23 01:37:10;;;;;;;9.25;5.40;;;;;;;18.00;63.53;98375.59;5052427;28;20096;-80
2023/07/23 01:39:36;;;;;;;6.00;4.60;;;;;;;17.40;63.48;98330.00;5038982;28;20116;-81
2023/07/23 01:42:02;;;;;;;8.25;6.07;;;;;;;16.93;66.83;98325.13;5049239;28;20064;-80
2023/07/23 01:44:29;;;;;;;8.27;4.47;;;;;;;17.75;63.76;98355.41;5047835;28;20071;-80
2023/07/23 01:46:55;;;;;;;8.25;5.50;;;;;;;17.80;64.10;98369.56;5054370;28;20096;-80
2023/07/23 01:49:20;;;;;;;7.32;4.80;;;;;;;17.68;63.81;98350.44;5038562;28;20025;-80
2023/07/23 01:51:46;;;;;;;7.68;5.47;;;;;;;17.20;66.49;98304.31;5043978;28;20025;-80
2023/07/23 01:54:11;;;;;;;6.55;5.15;;;;;;;17.51;64.51;98344.91;5039594;28;20097;-80
2023/07/23 01:56:37;;;;;;;5.50;4.85;;;;;;;17.40;64.89;98303.03;5055773;28;20082;-81
2023/07/23 01:59:04;;;;;;;6.90;5.45;;;;;;;17.86;64.04;98341.34;5055940;28;20032;-80
2023/07/23 02:01:29;;;;;;;9.45;4.95;;;;;;;17.82;63.91;98353.84;5027759;28;20050;-80
2023/07/23 02:03:55;;;;;;;5.85;5.07;;;;;;;17.42;64.26;98289.22;5040423;28;20049;-81
2023/07/23 02:06:20;;;;;;;5.95;5.10;;;;;;;17.69;64.25;98346.59;5025821;28;20036;-80
2023/07/23 02:08:46;;;;;;;10.02;6.03;;;;;;;17.20;67.99;98344.75;5037521;28;20030;-81
2023/07/23 02:11:11;;;;;;;6.18;5.18;;;;;;;17.17;65.47;98298.69;5058418;28;20096;-80
2023/07/23 02:13:37;;;;;;;10.40;5.38;;;;;;;17.62;64.92;98337.34;5054013;28;20029;-81
2023/07/23 02:16:02;;;;;;;9.57;4.90;;;;;;;17.37;64.72;98287.44;5055240;28;20020;-81
2023/07/23 02:18:28;;;;;;;9.02;5.45;;;;;;;17.56;64.56;98296.19;5027421;28;20097;-80
2023/07/23 02:20:54;;;;;;;6.50;5.13;;;;;;;17.71;64.38;98335.53;5056671;28;20029;-80
2023/07/23 02:23:20;;;;;;;6.63;5.40;;;;;;;17.52;65.15;98319.50;5037523;28;20038;-80
2023/07/23 02:25:48;;;;;;;8.15;5.00;;;;;;;17.28;65.72;98316.25;5036935;28;20029;-80
2023/07/23 02:28:13;;;;;;;9.25;5.20;;;;;;;17.64;64.99;98337.84;5034825;28;20057;-81
2023/07/23 02:30:39;;;;;;;7.90;5.22;;;;;;;17.52;64.71;98289.00;5055040;28;20017;-81
2023/07/23 02:33:04;;;;;;;5.80;5.07;;;;;;;17.78;64.71;98335.88;5051695;28;20029;-81
2023/07/23 02:35:34;;;;;;;7.65;4.45;;;;;;;17.66;65.22;98335.63;5033408;28;20017;-81
2023/07/23 02:37:59;;;;;;;10.63;5.45;;;;;;;17.51;65.32;98303.63;5038596;28;20106;-81
2023/07/23 02:40:24;;;;;;;6.30;4.93;;;;;;;17.63;65.18;98325.44;5047659;28;20009;-81
2023/07/23 02:42:50;;;;;;;7.05;5.60;;;;;;;17.41;65.28;98290.34;5050979;28;20103;-81
2023/07/23 02:45:15;;;;;;;6.30;4.85;;;;;;;17.56;65.21;98312.38;5006695;28;20520;-81
2023/07/23 02:47:41;;;;;;;10.05;5.13;;;;;;;17.57;65.60;98338.28;5039832;28;20068;-81
2023/07/23 02:50:06;;;;;;;9.73;5.50;;;;;;;17.24;65.93;98286.41;5037606;28;20036;-81
2023/07/23 02:52:32;;;;;;;6.50;5.43;;;;;;;17.55;65.65;98312.69;5023140;28;20022;-81
2023/07/23 02:54:57;;;;;;;9.52;5.05;;;;;;;16.95;68.64;98287.91;5027026;28;20346;-82
2023/07/23 02:57:23;;;;;;;8.93;5.10;;;;;;;17.52;66.43;98316.78;5053283;28;20047;-81
2023/07/23 02:59:48;;;;;;;9.15;6.07;;;;;;;16.94;70.05;98297.88;5045885;28;20048;-81
2023/07/23 03:02:14;;;;;;;7.68;5.70;;;;;;;16.72;70.04;98305.09;5048559;28;20033;-81
2023/07/23 03:04:41;;;;;;;6.25;4.80;;;;;;;16.86;67.37;98244.66;5026941;28;20033;-81
2023/07/23 03:07:09;;;;;;;7.63;5.30;;;;;;;16.81;70.01;98296.00;5048748;28;20067;-81
2023/07/23 03:09:36;;;;;;;7.90;5.28;;;;;;;17.11;67.23;98268.38;5051119;28;20018;-81
2023/07/23 03:12:02;;;;;;;5.55;4.32;;;;;;;17.28;66.71;98278.47;5057269;28;20048;-82
2023/07/23 03:14:28;;;;;;;9.57;4.78;;;;;;;17.47;67.28;98281.81;5023505;28;20044;-82
2023/07/23 03:16:53;;;;;;;6.85;4.80;;;;;;;17.26;67.42;98253.72;5010632;28;20028;-82
2023/07/23 03:19:19;;;;;;;9.00;4.95;;;;;;;17.29;67.33;98272.00;5027234;28;20045;-82
2023/07/23 03:21:44;;;;;;;7.75;5.30;;;;;;;17.37;67.30;98275.84;5034178;28;20041;-82
2023/07/23 03:24:09;;;;;;;8.00;5.72;;;;;;;17.41;67.44;98283.03;5020049;28;20041;-82
2023/07/23 03:26:34;;;;;;;11.60;5.38;;;;;;;17.34;67.58;98266.50;5005075;28;20038;-82
2023/07/23 03:29:00;;;;;;;10.27;4.68;;;;;;;17.21;68.37;98280.84;5018282;28;20104;-81
2023/07/23 03:31:25;;;;;;;8.23;5.20;;;;;;;17.42;67.82;98273.84;5042032;28;20034;-82
2023/07/23 03:33:51;;;;;;;7.15;5.13;;;;;;;17.44;67.69;98276.22;5039631;28;20032;-82
2023/07/23 03:36:16;;;;;;;5.65;5.00;;;;;;;17.35;67.52;98273.47;5041109;28;20036;-82
2023/07/23 03:38:41;;;;;;;6.13;4.97;;;;;;;17.13;67.79;98243.78;5022069;28;20095;-82
2023/07/23 03:41:07;;;;;;;8.15;5.00;;;;;;;17.21;68.33;98262.72;5018443;28;20037;-82
2023/07/23 03:43:32;;;;;;;6.55;5.35;;;;;;;17.16;68.47;98257.47;5034654;28;20026;-82
2023/07/23 03:45:57;;;;;;;8.77;6.05;;;;;;;17.17;68.34;98271.72;5036122;28;20076;-82
2023/07/23 03:48:23;;;;;;;7.82;5.43;;;;;;;17.29;68.36;98258.50;5031043;28;20033;-81
2023/07/23 03:50:48;;;;;;;8.98;5.47;;;;;;;17.23;68.59;98257.81;5027695;28;20485;-82
2023/07/23 03:53:13;;;;;;;9.95;4.97;;;;;;;17.21;68.14;98241.16;5012915;28;20496;-81
2023/07/23 03:55:39;;;;;;;7.78;5.43;;;;;;;17.22;67.93;98244.66;5028741;28;20042;-81
2023/07/23 03:58:04;;;;;;;7.05;5.20;;;;;;;17.37;67.73;98257.78;5013388;28;20037;-81
2023/07/23 04:00:29;;;;;;;7.50;5.03;;;;;;;17.22;68.29;98252.75;5018416;28;20115;-81
2023/07/23 04:02:55;;;;;;;5.68;4.93;;;;;;;17.32;68.22;98247.09;5023603;28;20052;-81
2023/07/23 04:05:20;;;;;;;9.20;5.28;;;;;;;17.07;69.32;98253.09;5035609;28;20033;-81
2023/07/23 04:07:45;;;;;;;7.18;5.80;;;;;;;17.19;68.07;98239.84;5029903;28;20025;-81
2023/07/23 04:10:11;;;;;;;7.75;4.85;;;;;;;16.96;68.33;98228.28;5032469;28;20041;-80
2023/07/23 04:12:36;;;;;;;8.57;5.53;;;;;;;17.10;68.87;98247.09;5041178;28;20527;-81
2023/07/23 04:15:02;;;;;;;8.85;6.00;;;;;;;17.20;68.31;98250.34;5036441;28;20087;-81
2023/07/23 04:17:27;;;;;;;10.20;5.07;;;;;;;17.08;68.23;98236.59;5043604;28;20048;-81
2023/07/23 04:19:53;;;;;;;6.55;5.35;;;;;;;17.12;68.50;98226.78;5033466;28;20036;-81
2023/07/23 04:22:18;;;;;;;10.07;5.28;;;;;;;16.88;68.30;98198.53;5001278;28;20037;-81
2023/07/23 04:24:44;;;;;;;6.32;5.03;;;;;;;16.95;69.16;98220.50;5036692;28;20028;-81
2023/07/23 04:27:10;;;;;;;6.25;5.10;;;;;;;16.85;69.76;98220.72;5056234;28;20033;-82
2023/07/23 04:29:38;;;;;;;9.05;5.80;;;;;;;16.89;70.81;98216.28;5048937;28;20021;-81
2023/07/23 04:32:04;;;;;;;7.53;5.72;;;;;;;16.48;71.51;98173.25;5049677;28;20567;-81
2023/07/23 04:34:40;;;;;;;8.40;5.90;;;;;;;16.66;70.96;98199.31;5040489;28;20037;-82
2023/07/23 04:37:07;;;;;;;9.43;5.65;;;;;;;16.78;69.78;98209.53;5055027;28;20029;-82
2023/07/23 04:39:33;;;;;;;7.47;5.40;;;;;;;16.68;69.94;98210.59;5050962;28;20069;-81
2023/07/23 04:41:58;;;;;;;7.43;6.40;;;;;;;16.03;72.75;98160.78;5032270;28;20045;-81
2023/07/23 04:44:23;;;;;;;9.98;5.88;;;;;;;16.70;70.33;98210.25;5049193;28;20083;-81
2023/07/23 04:46:49;;;;;;;8.57;6.13;;;;;;;16.41;72.17;98189.03;5058632;28;20088;-81
2023/07/23 04:49:14;;;;;;;7.68;5.97;;;;;;;16.01;73.67;98160.28;5051685;28;20017;-81
2023/07/23 04:51:41;;;;;;;7.93;5.18;;;;;;;15.98;72.96;98166.25;5049300;28;20037;-81
2023/07/23 04:54:07;;;;;;;9.55;6.68;;;;;;;16.45;73.81;98208.88;5054914;28;20032;-81
2023/07/23 04:56:32;;;;;;;9.65;6.28;;;;;;;16.34;73.98;98213.69;5058086;28;20014;-81
2023/07/23 04:58:58;;;;;;;8.63;5.78;;;;;;;16.08;72.82;98145.28;5039785;28;20037;-82
2023/07/23 05:01:23;;;;;;;11.43;6.43;;;;;;;15.88;75.76;98153.78;5054903;28;20029;-81
2023/07/23 05:03:49;;;;;;;9.93;6.68;;;;;;;15.65;77.07;98146.72;5061004;28;20022;-81
2023/07/23 05:06:15;;;;;;;7.82;5.78;;;;;;;16.00;78.82;98207.94;5057732;28;20009;-82
2023/07/23 05:08:40;;;;;;;11.25;6.60;;;;;;;15.96;77.20;98173.81;5046270;28;20034;-81
2023/07/23 05:11:06;;;;;;;13.98;7.22;;;;;;;16.18;77.20;98196.25;5044473;28;20105;-81
2023/07/23 05:13:37;;;;;;;8.68;6.60;;;;;;;16.08;77.63;98180.28;5046355;28;20056;-82
2023/07/23 05:16:04;;;;;;;8.13;5.88;;;;;;;15.89;73.99;98131.16;5054105;28;20041;-81
2023/07/23 05:18:32;;;;;;;7.43;4.88;;;;;;;16.57;73.15;98197.63;5057190;28;20033;-82
2023/07/23 05:20:57;;;;;;;8.40;5.68;;;;;;;16.55;73.87;98191.75;5055251;28;20112;-81
2023/07/23 05:23:23;;;;;;;9.15;6.38;;;;;;;16.29;73.45;98140.28;5059516;28;20010;-81
2023/07/23 05:25:48;;;;;;;8.82;5.82;;;;;;;16.24;74.17;98125.03;5053564;28;20093;-81
2023/07/23 05:28:15;;;;;;;10.65;6.38;;;;;;;16.31;74.40;98152.38;5061795;28;20035;-81
2023/07/23 05:30:41;;;;;;;6.50;5.28;;;;;;;16.39;72.44;98132.78;5057995;28;20017;-81
2023/07/23 05:33:06;;;;;;;8.85;5.53;;;;;;;16.61;75.13;98187.84;5052386;28;20032;-81
2023/07/23 05:35:32;;;;;;;6.32;4.63;;;;;;;16.85;72.24;98177.56;5036559;28;20499;-81
2023/07/23 05:37:58;;;;;;;8.30;6.25;;;;;;;16.62;72.59;98130.94;5058901;28;20044;-81
2023/07/23 05:40:23;;;;;;;9.07;6.43;;;;;;;16.27;75.91;98126.34;5054590;28;20034;-81
2023/07/23 05:42:49;;;;;;;8.93;5.85;;;;;;;16.39;75.14;98143.56;5056296;28;20049;-81
2023/07/23 05:45:14;;;;;;;9.32;6.13;;;;;;;16.52;72.87;98114.22;5056048;28;20037;-81
2023/07/23 05:47:39;;;;;;;13.07;5.43;;;;;;;16.76;71.40;98125.50;5050269;28;20026;-81
2023/07/23 05:50:05;;;;;;;9.30;6.47;;;;;;;16.74;73.92;98155.47;5038871;28;20029;-81
2023/07/23 05:52:33;;;;;;;11.43;7.78;;;;;;;16.83;74.74;98160.91;5038589;28;20040;-81
2023/07/23 05:54:59;;;;;;;9.68;5.68;;;;;;;16.61;72.51;98096.22;5050638;28;20042;-81
2023/07/23 05:57:25;;;;;;;9.55;6.13;;;;;;;16.72;72.42;98113.75;5052219;28;20022;-81
2023/07/23 05:59:50;;;;;;;7.72;6.63;;;;;;;16.84;74.27;98138.25;5035157;28;20056;-81
2023/07/23 06:02:15;;;;;;;10.23;5.85;;;;;;;16.99;75.53;98159.47;5029853;28;20404;-81
2023/07/23 06:04:41;;;;;;;7.18;6.00;;;;;;;17.05;74.52;98159.03;5030975;28;20095;-81
2023/07/23 06:07:06;;;;;;;10.18;6.40;;;;;;;17.30;72.00;98162.22;5048145;28;20083;-80
2023/07/23 06:09:32;;;;;;;8.95;6.63;;;;;;;17.30;74.22;98141.41;5048760;28;20021;-81
2023/07/23 06:11:57;;;;;;;10.10;5.65;;;;;;;17.50;71.75;98140.06;5049549;28;20032;-81
2023/07/23 06:14:23;;;;;;;9.25;5.38;;;;;;;17.43;70.75;98132.44;5027906;28;20042;-81
2023/07/23 06:16:48;;;;;;;8.73;5.93;;;;;;;17.76;69.65;98149.13;5043420;28;20029;-81
2023/07/23 06:19:14;;;;;;;10.23;7.03;;;;;;;17.24;73.96;98099.50;5041904;28;20033;-81
2023/07/23 06:21:39;;;;;;;6.97;5.55;;;;;;;17.45;70.13;98105.94;5016625;28;20033;-81
2023/07/23 06:24:05;;;;;;;7.22;5.18;;;;;;;17.92;69.04;98145.69;5037014;28;20033;-80
2023/07/23 06:26:30;;;;;;;8.63;6.15;;;;;;;17.98;69.07;98147.13;5047948;28;20034;-81
2023/07/23 06:28:56;;;;;;;9.98;6.28;;;;;;;17.72;69.57;98103.06;5042212;28;20033;-81
2023/07/23 06:31:22;;;;;;;11.68;6.50;;;;;;;17.96;69.50;98140.47;5031813;28;20040;-81
2023/07/23 06:33:48;;;;;;;9.13;6.50;;;;;;;17.68;71.26;98110.19;5027706;28;20029;-81
2023/07/23 06:36:14;;;;;;;8.20;5.85;;;;;;;17.98;69.03;98122.03;5041314;28;20041;-81
2023/07/23 06:38:39;;;;;;;9.35;5.68;;;;;;;18.12;69.34;98136.22;5031197;28;20059;-81
2023/07/23 06:41:05;;;;;;;8.88;6.57;;;;;;;18.00;71.86;98138.72;5049745;28;20033;-81
2023/07/23 06:43:31;;;;;;;14.35;5.82;;;;;;;18.17;68.75;98135.28;5047872;28;20490;-81
2023/07/23 06:45:56;;;;;;;8.10;6.03;;;;;;;18.20;70.11;98121.13;5058039;28;20060;-81
2023/07/23 06:48:27;;;;;;;8.00;5.53;;;;;;;18.17;68.74;98113.66;5045291;28;20025;-81
2023/07/23 06:50:57;;;;;;;10.43;6.47;;;;;;;18.33;69.25;98125.59;5025119;28;20040;-81
2023/07/23 06:53:23;;;;;;;11.40;6.45;;;;;;;18.36;70.15;98128.47;5040208;28;20028;-81
2023/07/23 06:56:05;;;;;;;9.75;5.93;;;;;;;18.28;71.15;98109.56;5041149;28;20030;-82
2023/07/23 06:58:33;;;;;;;7.72;6.70;;;;;;;18.30;70.14;98124.34;5034311;28;20516;-80
2023/07/23 07:00:58;;;;;;;7.18;6.00;;;;;;;18.34;68.42;98100.19;5032458;28;20032;-80
2023/07/23 07:03:24;;;;;;;9.80;6.57;;;;;;;18.32;69.87;98103.22;5029577;28;20029;-81
2023/07/23 07:05:50;;;;;;;9.63;6.20;;;;;;;18.43;69.40;98109.91;5018226;28;20034;-80
2023/07/23 07:08:15;;;;;;;11.25;6.30;;;;;;;18.76;69.12;98118.34;5033287;28;20559;-81
2023/07/23 07:10:40;;;;;;;12.18;5.38;;;;;;;18.80;67.29;98103.06;5021816;28;20119;-80
2023/07/23 07:13:06;;;;;;;13.50;5.50;;;;;;;18.86;66.96;98096.38;5019000;28;20119;-81
2023/07/23 07:15:31;;;;;;;9.90;5.72;;;;;;;19.01;66.52;98114.81;4997151;28;20037;-80
2023/07/23 07:17:57;;;;;;;6.00;5.35;;;;;;;19.02;66.01;98100.19;5016499;28;20034;-81
2023/07/23 07:20:22;;;;;;;8.57;5.53;;;;;;;19.12;65.64;98094.44;5034246;28;20053;-80
2023/07/23 07:22:48;;;;;;;7.88;5.72;;;;;;;19.22;65.24;98098.72;5031242;28;20025;-81
2023/07/23 07:25:14;;;;;;;7.43;5.43;;;;;;;19.34;64.46;98096.94;5036267;28;20029;-80
2023/07/23 07:27:39;;;;;;;6.68;5.05;;;;;;;19.40;64.30;98092.94;5023240;28;20033;-81
2023/07/23 07:30:05;;;;;;;7.72;5.47;;;;;;;19.39;64.29;98099.50;5040848;28;20030;-80
2023/07/23 07:32:31;;;;;;;8.82;5.50;;;;;;;19.27;63.24;98069.56;5042856;28;20040;-81
2023/07/23 07:34:56;;;;;;;9.70;5.30;;;;;;;19.31;63.16;98032.59;5044978;28;20037;-80
2023/07/23 07:37:22;;;;;;;8.73;5.57;;;;;;;19.43;62.04;98065.25;5052702;28;20029;-80
2023/07/23 07:39:48;;;;;;;6.20;4.95;;;;;;;19.63;61.73;98057.50;5050035;28;20081;-81
2023/07/23 07:42:13;;;;;;;9.57;5.15;;;;;;;19.52;61.72;98027.31;5051586;28;20075;-80
2023/07/23 07:44:38;;;;;;;10.23;5.28;;;;;;;19.67;60.88;98036.78;5038622;28;20021;-81
2023/07/23 07:47:04;;;;;;;6.57;5.30;;;;;;;19.74;60.84;98035.16;5049018;28;20048;-80
2023/07/23 07:49:30;;;;;;;6.00;4.13;;;;;;;19.79;60.58;98047.72;5048114;28;20093;-80
2023/07/23 07:51:55;;;;;;;7.78;4.15;;;;;;;19.99;60.29;98049.63;5031982;28;20038;-80
2023/07/23 07:54:20;;;;;;;9.75;5.65;;;;;;;19.75;60.38;98000.72;5030237;28;20120;-80
2023/07/23 07:56:46;;;;;;;7.13;4.90;;;;;;;19.86;59.56;98032.50;5040112;28;20028;-81
2023/07/23 07:59:12;;;;;;;5.38;4.13;;;;;;;20.00;59.24;98026.84;5047340;28;20061;-81
2023/07/23 08:01:37;;;;;;;6.03;4.70;;;;;;;20.27;58.96;98072.41;5033660;28;20033;-81
2023/07/23 08:04:06;;;;;;;6.75;5.57;;;;;;;20.13;58.94;98025.81;5053500;28;20030;-81
2023/07/23 08:06:33;;;;;;;8.00;4.40;;;;;;;20.38;59.42;98053.88;5032842;28;20048;-80
2023/07/23 08:09:02;;;;;;;9.57;4.75;;;;;;;20.45;58.98;98054.91;5030905;28;20060;-81
2023/07/23 08:11:27;;;;;;;7.28;5.28;;;;;;;20.36;59.25;98040.63;5042504;28;20093;-80
2023/07/23 08:13:53;;;;;;;6.50;5.75;;;;;;;20.47;59.00;98044.53;5044722;28;20036;-81
2023/07/23 08:16:19;;;;;;;6.20;4.68;;;;;;;20.55;58.95;98051.00;5045052;28;20036;-81
2023/07/23 08:18:44;;;;;;;5.70;5.15;;;;;;;20.64;58.81;98063.34;5053320;28;20025;-81
2023/07/23 08:21:14;;;;;;;6.03;4.90;;;;;;;20.48;58.87;98013.59;5044538;28;20033;-81
2023/07/23 08:23:40;;;;;;;8.93;4.82;;;;;;;20.64;59.44;98054.44;5051161;28;20052;-81
2023/07/23 08:26:07;;;;;;;6.68;4.88;;;;;;;20.31;58.61;97994.78;5050608;28;20036;-80
2023/07/23 08:28:37;;;;;;;5.53;4.80;;;;;;;20.68;58.22;98058.88;5038838;28;20040;-82
2023/07/23 08:31:03;;;;;;;10.15;4.50;;;;;;;20.71;58.12;98066.31;5050044;28;20052;-81
2023/07/23 08:33:30;;;;;;;8.93;4.30;;;;;;;20.59;58.23;98041.88;5048574;28;20005;-81
2023/07/23 08:35:57;;;;;;;7.43;4.45;;;;;;;20.77;57.92;98054.13;5046820;28;20049;-81
2023/07/23 08:38:24;;;;;;;7.85;4.10;;;;;;;20.86;57.76;98052.13;5030215;28;20026;-81
2023/07/23 08:40:55;;;;;;;5.97;4.85;;;;;;;20.67;57.45;98007.66;5050945;28;20036;-81
2023/07/23 08:43:58;;;;;;;4.35;3.95;;;;;;;21.02;57.61;98052.28;5053464;28;20025;-81
2023/07/23 08:46:24;;;;;;;6.53;4.30;;;;;;;21.10;57.28;98059.56;5048108;28;20025;-80
2023/07/23 08:48:59;;;;;;;6.97;4.28;;;;;;;21.16;57.24;98052.81;5057059;28;20037;-81
2023/07/23 08:51:26;;;;;;;8.02;4.03;;;;;;;20.80;57.18;98001.94;5057201;28;20045;-80
2023/07/23 08:53:53;;;;;;;4.88;4.28;;;;;;;21.19;56.98;98054.03;5052849;28;20036;-80
2023/07/23 08:56:18;;;;;;;6.72;4.15;;;;;;;21.28;56.43;98044.69;5056489;28;20028;-81
2023/07/23 08:58:45;;;;;;;6.43;4.22;;;;;;;21.40;56.89;98058.28;5052099;28;20029;-81
2023/07/23 09:01:16;;;;;;;7.20;3.75;;;;;;;21.38;56.75;98055.09;5033245;28;20034;-81
2023/07/23 09:03:42;;;;;;;5.25;4.20;;;;;;;21.46;56.44;98056.94;5071603;28;20032;-80
2023/07/23 09:06:12;;;;;;;6.82;4.32;;;;;;;21.12;55.96;98018.53;5052361;28;20009;-81
2023/07/23 09:08:38;;;;;;;5.68;3.97;;;;;;;20.98;55.45;98005.25;5057546;28;20032;-81
2023/07/23 09:11:05;;;;;;;5.70;4.05;;;;;;;21.26;55.29;98025.22;5055238;28;20136;-80
2023/07/23 09:13:38;;;;;;;6.05;3.42;;;;;;;21.26;55.61;98025.22;5041866;28;20040;-81
2023/07/23 09:16:05;;;;;;;5.50;3.85;;;;;;;21.59;55.59;98055.00;5056116;28;20036;-81
2023/07/23 09:18:31;;;;;;;6.15;3.50;;;;;;;21.59;56.36;98053.09;5054564;28;20021;-81
2023/07/23 09:20:57;;;;;;;6.43;3.55;;;;;;;21.54;55.34;98052.50;5048754;28;20037;-81
2023/07/23 09:23:25;;;;;;;4.18;3.45;;;;;;;21.61;55.34;98063.59;5034480;28;20045;-81
2023/07/23 09:25:51;;;;;;;4.15;3.40;;;;;;;21.44;55.26;98080.13;5018465;28;20029;-81
2023/07/23 09:28:23;;;;;;;3.97;3.33;;;;;;;21.41;54.55;98075.34;5025212;28;20038;-82
2023/07/23 09:30:54;;;;;;;4.57;3.35;;;;;;;21.39;54.65;98075.69;5027170;28;20122;-82
2023/07/23 09:33:19;;;;;;;4.18;2.92;;;;;;;21.37;54.44;98067.09;5024177;28;20095;-82
2023/07/23 09:35:44;;;;;;;4.53;3.38;;;;;;;21.34;54.43;98046.03;5010753;28;20120;-82
2023/07/23 09:38:13;;;;;;;5.00;3.47;;;;;;;21.51;54.29;98045.81;5019789;28;20467;-82
2023/07/23 09:40:40;;;;;;;5.72;3.40;;;;;;;21.55;54.32;98049.47;5019868;28;20167;-81
2023/07/23 09:43:07;;;;;;;5.40;3.65;;;;;;;21.71;54.33;98060.44;4999255;28;20033;-81
2023/07/23 09:45:38;;;;;;;6.88;4.10;;;;;;;21.65;54.38;98069.94;5028461;28;20045;-82
2023/07/23 09:48:03;;;;;;;5.05;3.72;;;;;;;21.69;54.05;98062.69;5021955;28;20502;-82
2023/07/23 09:50:29;;;;;;;4.80;3.42;;;;;;;21.71;53.71;98057.72;5026939;28;20554;-81
2023/07/23 09:52:55;;;;;;;5.00;4.07;;;;;;;21.72;54.43;98072.88;5022544;28;20029;-82
2023/07/23 09:55:21;;;;;;;3.45;3.15;;;;;;;21.57;53.91;98049.91;5022805;28;20033;-82
2023/07/23 09:57:52;;;;;;;6.00;3.47;;;;;;;21.72;53.92;98053.88;5017970;28;20095;-82
2023/07/23 10:00:18;;;;;;;4.35;3.65;;;;;;;21.78;54.36;98068.81;5008034;28;20032;-81
2023/07/23 10:02:47;;;;;;;8.93;4.28;;;;;;;21.25;54.78;98069.78;5016073;28;20042;-83
2023/07/23 10:05:15;;;;;;;12.00;4.25;;;;;;;21.23;55.28;98058.47;5020686;28;20030;-82
2023/07/23 10:07:41;;;;;;;13.73;4.40;;;;;;;21.03;54.11;98066.66;5022641;28;20049;-82
2023/07/23 10:10:07;;;;;;;19.05;4.47;;;;;;;20.91;54.37;98062.78;5026388;28;20543;-82
2023/07/23 10:12:32;;;;;;;10.18;4.22;;;;;;;20.99;54.39;98068.47;5018922;28;20038;-82
2023/07/23 10:14:58;;;;;;;5.38;4.00;;;;;;;20.90;55.00;98080.16;5026337;28;20033;-82
2023/07/23 10:17:24;;;;;;;9.82;4.40;;;;;;;20.80;55.10;98056.19;5025870;28;20029;-82
2023/07/23 10:19:51;;;;;;;5.43;4.07;;;;;;;20.80;55.17;98083.31;5032588;28;20393;-82
2023/07/23 10:22:17;;;;;;;6.05;3.80;;;;;;;20.86;54.75;98059.47;5016302;28;20033;-81
2023/07/23 10:24:43;;;;;;;7.15;3.78;;;;;;;21.07;54.71;98075.75;5016579;28;20041;-81
2023/07/23 10:27:14;;;;;;;8.38;4.35;;;;;;;21.24;55.29;98076.34;5022814;28;20072;-81
2023/07/23 10:29:40;;;;;;;4.85;3.90;;;;;;;21.23;55.51;98082.91;5021154;28;20045;-82
2023/07/23 10:32:24;;;;;;;6.82;4.53;;;;;;;21.33;56.15;98062.69;5024210;28;20501;-81
2023/07/23 10:34:50;;;;;;;10.23;4.40;;;;;;;21.28;56.01;98050.13;5027477;28;20033;-81
2023/07/23 10:37:19;;;;;;;5.75;3.70;;;;;;;21.36;56.72;98054.63;5007091;28;20582;-81
2023/07/23 10:39:59;;;;;;;7.55;4.07;;;;;;;21.42;56.91;98082.38;5027960;28;20558;-81
2023/07/23 10:42:35;;;;;;;4.35;3.80;;;;;;;21.26;57.61;98076.81;5021719;28;20057;-81
2023/07/23 10:45:21;;;;;;;6.97;4.43;;;;;;;21.23;59.16;98095.69;5023718;28;20036;-81
2023/07/23 10:47:57;;;;;;;8.48;4.43;;;;;;;21.09;60.56;98084.34;5017100;28;20211;-82
2023/07/23 10:50:24;;;;;;;;;;;;;;;20.90;61.17;98079.41;5027200;28;20025;-81
2023/07/23 10:52:51;;;;;;;;;;;;;;;20.85;61.27;98088.53;5024828;28;19945;-81
2023/07/23 10:55:34;;;;;;;;;;;;;;;20.81;61.41;98090.34;5025262;28;19962;-82
2023/07/23 10:58:02;;;;;;;6.00;4.25;;;;;;;20.73;62.31;98076.81;5042463;28;20276;-81
2023/07/23 11:00:30;;;;;;;7.03;4.70;;;;;;;20.73;63.10;98077.63;5009540;28;22135;-81
2023/07/23 11:02:56;;;;;;;8.10;4.75;;;;;;;20.59;64.63;98087.19;5036928;28;20044;-81
2023/07/23 11:05:22;;;;;;;6.65;4.88;;;;;;;20.55;64.98;98078.91;5027483;28;20084;-82
2023/07/23 11:08:23;;;;;;;7.22;4.18;;;;;;;20.25;66.37;98080.09;5024518;28;20132;-82
2023/07/23 11:10:56;;;;;;;10.48;5.15;;;;;;;20.16;67.59;98079.31;5013502;28;20458;-82
2023/07/23 11:13:23;;;;;;;5.78;4.60;;;;;;;20.18;67.26;98080.59;5027708;28;20063;-82
2023/07/23 11:15:49;;;;;;;11.25;5.07;;;;;;;20.09;67.88;98073.66;5008730;28;20024;-82
2023/07/23 11:18:14;;;;;;;8.93;5.03;;;;;;;20.15;67.21;98077.75;5037754;28;20497;-82
2023/07/23 11:20:48;;;;;;;6.03;4.40;;;;;;;20.09;67.25;98070.94;5026868;28;20437;-82
2023/07/23 11:23:14;;;;;;;6.15;5.03;;;;;;;20.29;67.16;98096.50;5024336;28;20469;-82
2023/07/23 11:25:40;;;;;;;7.18;4.90;;;;;;;20.31;67.02;98086.94;5027623;28;20116;-82
2023/07/23 11:28:09;;;;;;;8.65;5.18;;;;;;;20.29;67.35;98086.44;5027810;28;20124;-82
2023/07/23 11:30:34;;;;;;;9.20;5.18;;;;;;;20.29;67.22;98083.72;5032586;28;20117;-81
2023/07/23 11:33:02;;;;;;;6.25;5.03;;;;;;;20.47;67.50;98100.66;5027877;28;20121;-81